createdAt,value
2023-03-28T00:01:03.963Z,98155.56
2023-03-28T00:03:35.909Z,98146.66
2023-03-28T00:06:05.969Z,98149.56
2023-03-28T00:08:53.121Z,98150.00
2023-03-28T00:11:39.368Z,98149.03
2023-03-28T00:14:19.955Z,98150.72
2023-03-28T00:17:03.674Z,98142.75
2023-03-28T00:19:55.060Z,98145.53
2023-03-28T00:22:41.212Z,98151.69
2023-03-28T00:25:08.908Z,98146.66
2023-03-28T00:27:36.496Z,98140.50
2023-03-28T00:30:06.343Z,98152.91
2023-03-28T00:32:34.100Z,98141.47
2023-03-28T00:35:00.961Z,98138.97
2023-03-28T00:37:28.043Z,98137.31
2023-03-28T00:39:54.969Z,98133.22
2023-03-28T00:42:23.607Z,98139.91
2023-03-28T00:44:54.562Z,98143.25
2023-03-28T00:47:52.852Z,98146.84
2023-03-28T00:50:38.280Z,98143.66
2023-03-28T00:53:13.949Z,98147.41
2023-03-28T00:55:46.723Z,98146.25
2023-03-28T00:58:18.038Z,98146.00
2023-03-28T01:00:49.412Z,98152.16
2023-03-28T01:03:19.814Z,98154.06
2023-03-28T01:05:48.104Z,98152.66
2023-03-28T01:08:20.879Z,98133.91
2023-03-28T01:10:49.501Z,98145.78
2023-03-28T01:13:39.730Z,98149.66
2023-03-28T01:16:25.675Z,98140.28
2023-03-28T01:19:16.874Z,98149.22
2023-03-28T01:22:30.871Z,98146.56
2023-03-28T01:25:46.228Z,98147.81
2023-03-28T01:28:52.103Z,98146.56
2023-03-28T01:31:37.726Z,98143.88
2023-03-28T01:34:29.155Z,98144.09
2023-03-28T01:37:21.896Z,98147.13
2023-03-28T01:40:36.643Z,98138.50
2023-03-28T01:43:06.476Z,98138.91
2023-03-28T01:46:05.098Z,98131.81
2023-03-28T01:48:50.084Z,98131.81
2023-03-28T01:51:41.310Z,98139.47
2023-03-28T01:54:32.060Z,98135.28
2023-03-28T01:57:06.702Z,98142.97
2023-03-28T01:59:37.313Z,98134.91
2023-03-28T02:02:07.269Z,98138.97
2023-03-28T02:04:36.865Z,98135.78
2023-03-28T02:07:04.874Z,98137.22
2023-03-28T02:09:35.048Z,98135.81
2023-03-28T02:12:08.467Z,98141.19
2023-03-28T02:14:42.620Z,98113.81
2023-03-28T02:17:16.244Z,98131.91
2023-03-28T02:19:50.574Z,98129.97
2023-03-28T02:22:17.413Z,98125.94
2023-03-28T02:24:50.629Z,98122.06
2023-03-28T02:27:22.882Z,98120.41
2023-03-28T02:29:50.628Z,98117.97
2023-03-28T02:32:18.205Z,98120.88
2023-03-28T02:34:49.151Z,98112.53
2023-03-28T02:37:47.796Z,98112.13
2023-03-28T02:40:29.464Z,98108.09
2023-03-28T02:43:05.553Z,98108.81
2023-03-28T02:45:54.802Z,98113.28
2023-03-28T02:48:40.451Z,98113.59
2023-03-28T02:51:22.802Z,98122.53
2023-03-28T02:54:04.923Z,98115.53
2023-03-28T02:56:51.321Z,98108.44
2023-03-28T02:59:32.150Z,98115.81
2023-03-28T03:01:59.982Z,98111.09
2023-03-28T03:04:26.848Z,98100.91
2023-03-28T03:06:53.786Z,98101.31
2023-03-28T03:09:21.104Z,98102.13
2023-03-28T03:11:48.004Z,98104.09
2023-03-28T03:14:15.010Z,98113.03
2023-03-28T03:16:43.349Z,98104.78
2023-03-28T03:19:10.769Z,98104.09
2023-03-28T03:21:37.868Z,98103.09
2023-03-28T03:24:05.098Z,98111.63
2023-03-28T03:26:32.356Z,98110.78
2023-03-28T03:29:00.947Z,98108.84
2023-03-28T03:31:28.076Z,98103.13
2023-03-28T03:33:55.517Z,98102.84
2023-03-28T03:36:22.421Z,98092.94
2023-03-28T03:38:49.310Z,98100.59
2023-03-28T03:41:16.655Z,98100.19
2023-03-28T03:43:44.340Z,98099.91
2023-03-28T03:46:12.933Z,98101.03
2023-03-28T03:48:49.537Z,98098.09
2023-03-28T03:51:18.110Z,98090.53
2023-03-28T03:53:45.199Z,98079.25
2023-03-28T03:56:12.144Z,98086.22
2023-03-28T03:58:38.993Z,98099.91
2023-03-28T04:01:06.403Z,98095.00
2023-03-28T04:03:34.491Z,98088.19
2023-03-28T04:06:02.287Z,98096.69
2023-03-28T04:08:29.425Z,98096.56
2023-03-28T04:10:56.548Z,98090.84
2023-03-28T04:13:23.520Z,98093.34
2023-03-28T04:15:50.551Z,98097.66
2023-03-28T04:18:20.750Z,98083.44
2023-03-28T04:20:55.421Z,98097.66
2023-03-28T04:23:26.120Z,98106.47
2023-03-28T04:26:01.700Z,98102.41
2023-03-28T04:28:28.716Z,98034.59
2023-03-28T04:30:59.633Z,98106.03
2023-03-28T04:33:34.094Z,98031.41
2023-03-28T04:36:02.373Z,98103.81
2023-03-28T04:38:37.560Z,98094.88
2023-03-28T04:41:05.672Z,98091.53
2023-03-28T04:43:32.936Z,98079.81
2023-03-28T04:46:00.143Z,98094.59
2023-03-28T04:48:27.690Z,98098.22
2023-03-28T04:50:55.534Z,98095.28
2023-03-28T04:53:22.819Z,98095.84
2023-03-28T04:55:50.524Z,98095.00
2023-03-28T04:58:18.902Z,98106.47
2023-03-28T05:00:48.527Z,98099.34
2023-03-28T05:03:21.177Z,98106.03
2023-03-28T05:05:49.787Z,98096.28
2023-03-28T05:08:18.779Z,98098.78
2023-03-28T05:10:46.260Z,98084.00
2023-03-28T05:13:13.795Z,98101.72
2023-03-28T05:15:42.446Z,98105.38
2023-03-28T05:18:09.800Z,98104.53
2023-03-28T05:20:36.796Z,98109.69
2023-03-28T05:23:06.268Z,98109.69
2023-03-28T05:25:33.651Z,98111.94
2023-03-28T05:28:01.631Z,98108.97
2023-03-28T05:30:28.771Z,98098.50
2023-03-28T05:32:55.717Z,98106.59
2023-03-28T05:35:22.972Z,98116.66
2023-03-28T05:37:49.880Z,98102.97
2023-03-28T05:40:16.892Z,98106.88
2023-03-28T05:42:43.920Z,98121.09
2023-03-28T05:45:12.788Z,98109.78
2023-03-28T05:47:39.966Z,98107.09
2023-03-28T05:50:08.181Z,98120.91
2023-03-28T05:52:35.448Z,98118.41
2023-03-28T05:55:02.542Z,98125.97
2023-03-28T05:57:29.413Z,98126.41
2023-03-28T05:59:56.308Z,98125.97
2023-03-28T06:02:24.673Z,98126.66
2023-03-28T06:04:54.104Z,98121.63
2023-03-28T06:07:35.267Z,98129.81
2023-03-28T06:10:07.470Z,98134.16
2023-03-28T06:12:34.494Z,98128.81
2023-03-28T06:15:01.493Z,98135.81
2023-03-28T06:17:28.525Z,98142.34
2023-03-28T06:19:55.659Z,98141.69
2023-03-28T06:22:22.605Z,98142.00
2023-03-28T06:24:49.513Z,98131.69
2023-03-28T06:27:16.877Z,98147.88
2023-03-28T06:29:43.736Z,98151.06
2023-03-28T06:32:12.777Z,98159.66
2023-03-28T06:34:39.788Z,98171.66
2023-03-28T06:37:07.036Z,98177.41
2023-03-28T06:39:33.918Z,98186.19
2023-03-28T06:42:03.509Z,98153.50
2023-03-28T06:44:31.038Z,98165.22
2023-03-28T06:46:58.467Z,98177.22
2023-03-28T06:49:25.566Z,98177.41
2023-03-28T06:51:53.300Z,98175.97
2023-03-28T06:54:20.336Z,98185.50
2023-03-28T06:56:47.592Z,98183.13
2023-03-28T06:59:14.521Z,98195.53
2023-03-28T07:01:41.433Z,98195.56
2023-03-28T07:04:08.573Z,98195.66
2023-03-28T07:06:35.512Z,98200.09
2023-03-28T07:09:04.738Z,98202.75
2023-03-28T07:11:32.951Z,98214.22
2023-03-28T07:13:59.898Z,98205.94
2023-03-28T07:16:26.876Z,98219.34
2023-03-28T07:18:53.786Z,98220.09
2023-03-28T07:21:20.753Z,98225.50
2023-03-28T07:23:47.671Z,98220.75
2023-03-28T07:26:15.708Z,98229.13
2023-03-28T07:28:43.432Z,98223.50
2023-03-28T07:31:11.395Z,98242.94
2023-03-28T07:33:39.004Z,98242.28
2023-03-28T07:36:12.276Z,98247.44
2023-03-28T07:38:39.220Z,98236.66
2023-03-28T07:41:06.558Z,98257.09
2023-03-28T07:43:34.204Z,98246.75
2023-03-28T07:46:02.656Z,98241.63
2023-03-28T07:48:30.747Z,98255.47
2023-03-28T07:51:17.553Z,98269.28
2023-03-28T07:53:44.438Z,98267.44
2023-03-28T07:56:12.378Z,98270.34
2023-03-28T07:58:41.132Z,98274.38
2023-03-28T08:01:09.949Z,98273.81
2023-03-28T08:03:37.121Z,98271.69
2023-03-28T08:06:11.323Z,98285.94
2023-03-28T08:08:44.054Z,98299.75
2023-03-28T08:11:12.620Z,98295.25
2023-03-28T08:13:39.569Z,98302.97
2023-03-28T08:16:06.939Z,98303.81
2023-03-28T08:18:33.915Z,98303.09
2023-03-28T08:21:03.008Z,98297.47
2023-03-28T08:23:30.227Z,98295.72
2023-03-28T08:26:03.176Z,98304.97
2023-03-28T08:28:30.096Z,98330.09
2023-03-28T08:30:57.056Z,98311.63
2023-03-28T08:33:23.966Z,98310.88
2023-03-28T08:35:53.808Z,98306.34
2023-03-28T08:38:20.795Z,98325.78
2023-03-28T08:41:22.657Z,98339.16
2023-03-28T08:43:52.681Z,98345.75
2023-03-28T08:46:23.243Z,98353.59
2023-03-28T08:48:53.316Z,98349.28
2023-03-28T08:51:23.077Z,98354.44
2023-03-28T08:54:08.406Z,98349.25
2023-03-28T08:56:42.876Z,98362.28
2023-03-28T08:59:16.812Z,98368.72
2023-03-28T09:01:45.039Z,98368.16
2023-03-28T09:04:26.049Z,98364.47
2023-03-28T09:07:04.400Z,98388.25
2023-03-28T09:09:43.630Z,98385.19
2023-03-28T09:12:27.438Z,98378.19
2023-03-28T09:15:35.993Z,98398.38
2023-03-28T09:18:32.000Z,98400.63
2023-03-28T09:20:59.048Z,98411.25
2023-03-28T09:23:53.989Z,98415.56
2023-03-28T09:26:27.999Z,98396.72
2023-03-28T09:29:05.656Z,98409.25
2023-03-28T09:31:46.315Z,98397.41
2023-03-28T09:34:21.586Z,98395.03
2023-03-28T09:36:55.337Z,98383.56
2023-03-28T09:39:32.958Z,98398.88
2023-03-28T09:42:12.087Z,98414.81
2023-03-28T09:44:54.810Z,98417.81
2023-03-28T09:47:22.609Z,98439.94
2023-03-28T09:49:54.359Z,98441.31
2023-03-28T09:52:26.727Z,98387.19
2023-03-28T09:54:53.917Z,98434.53
2023-03-28T09:57:20.913Z,98435.28
2023-03-28T09:59:47.893Z,98424.94
2023-03-28T10:02:32.978Z,98437.19
2023-03-28T10:05:00.497Z,98432.31
2023-03-28T10:07:42.869Z,98432.13
2023-03-28T10:10:25.214Z,98431.22
2023-03-28T10:12:59.335Z,98443.13
2023-03-28T10:15:41.583Z,98446.19
2023-03-28T10:18:15.739Z,98455.34
2023-03-28T10:20:42.829Z,98444.41
2023-03-28T10:23:13.586Z,98453.66
2023-03-28T10:25:43.270Z,98458.00
2023-03-28T10:28:37.170Z,98406.03
2023-03-28T10:31:05.380Z,98452.28
2023-03-28T10:33:46.609Z,98448.88
2023-03-28T10:36:29.645Z,98444.22
2023-03-28T10:38:57.034Z,98457.19
2023-03-28T10:41:26.299Z,98468.47
2023-03-28T10:43:53.968Z,98467.97
2023-03-28T10:46:27.157Z,98465.34
2023-03-28T10:49:02.041Z,98469.34
2023-03-28T10:51:34.622Z,98473.94
2023-03-28T10:54:39.953Z,98473.16
2023-03-28T10:57:25.456Z,98481.31
2023-03-28T11:00:14.869Z,98474.63
2023-03-28T11:03:08.149Z,98482.03
2023-03-28T11:05:54.914Z,98475.63
2023-03-28T11:08:46.845Z,98476.38
2023-03-28T11:11:51.293Z,98465.91
2023-03-28T11:14:27.251Z,98477.44
2023-03-28T11:17:18.792Z,98468.41
2023-03-28T11:20:11.008Z,98478.34
2023-03-28T11:22:37.815Z,98475.28
2023-03-28T11:25:23.691Z,98489.56
2023-03-28T11:28:06.605Z,98488.41
2023-03-28T11:30:51.501Z,98485.47
2023-03-28T11:33:33.459Z,98484.09
2023-03-28T11:36:08.772Z,98497.25
2023-03-28T11:38:44.697Z,98491.13
2023-03-28T11:41:19.853Z,98485.09
2023-03-28T11:44:15.036Z,98490.75
2023-03-28T11:46:44.983Z,98479.91
2023-03-28T11:49:24.240Z,98487.56
2023-03-28T11:51:54.779Z,98472.56
2023-03-28T11:54:29.111Z,98471.47
2023-03-28T11:57:07.358Z,98483.03
2023-03-28T11:59:49.886Z,98489.47
2023-03-28T12:02:52.663Z,98478.97
2023-03-28T12:05:33.304Z,98487.25
2023-03-28T12:08:12.805Z,98480.19
2023-03-28T12:10:42.913Z,98483.00
2023-03-28T12:13:19.185Z,98503.19
2023-03-28T12:15:56.280Z,98510.44
2023-03-28T12:18:33.274Z,98542.44
2023-03-28T12:21:10.779Z,98557.06
2023-03-28T12:23:39.606Z,98572.97
2023-03-28T12:26:21.583Z,98579.28
2023-03-28T12:28:56.069Z,98571.44
2023-03-28T12:31:22.967Z,98568.75
2023-03-28T12:33:56.316Z,98564.97
2023-03-28T12:36:49.272Z,98572.09
2023-03-28T12:39:19.458Z,98558.72
2023-03-28T12:41:47.000Z,98556.94
2023-03-28T12:44:21.850Z,98550.59
2023-03-28T12:46:59.054Z,98546.34
2023-03-28T12:49:42.003Z,98549.41
2023-03-28T12:52:19.484Z,98545.41
2023-03-28T12:55:01.850Z,98570.50
2023-03-28T12:57:45.359Z,98596.00
2023-03-28T13:00:18.293Z,98599.91
2023-03-28T13:03:00.774Z,98610.22
2023-03-28T13:05:47.589Z,98617.56
2023-03-28T13:08:24.425Z,98606.66
2023-03-28T13:11:23.687Z,98620.72
2023-03-28T13:14:34.886Z,98611.00
2023-03-28T13:17:23.663Z,98613.25
2023-03-28T13:20:26.315Z,98612.03
2023-03-28T13:22:58.236Z,98582.81
2023-03-28T13:25:29.726Z,98615.66
2023-03-28T13:28:11.938Z,98593.16
2023-03-28T13:30:42.984Z,98615.56
2023-03-28T13:33:25.474Z,98613.75
2023-03-28T13:35:58.469Z,98616.38
2023-03-28T13:38:27.952Z,98614.75
2023-03-28T13:41:01.944Z,98623.44
2023-03-28T13:43:43.828Z,98624.53
2023-03-28T13:46:23.823Z,98610.56
2023-03-28T13:49:01.672Z,98599.09
2023-03-28T13:51:38.242Z,98610.13
2023-03-28T13:54:05.331Z,98608.34
2023-03-28T13:56:35.430Z,98602.03
2023-03-28T13:59:08.286Z,98610.13
2023-03-28T14:01:42.907Z,98603.69
2023-03-28T14:04:30.389Z,98615.78
2023-03-28T14:06:58.219Z,98605.59
2023-03-28T14:09:30.632Z,98612.75
2023-03-28T14:12:12.326Z,98612.00
2023-03-28T14:14:49.459Z,98640.56
2023-03-28T14:17:24.018Z,98631.31
2023-03-28T14:19:50.956Z,98641.94
2023-03-28T14:22:24.888Z,98662.13
2023-03-28T14:24:55.592Z,98628.94
2023-03-28T14:27:39.137Z,98641.84
2023-03-28T14:30:29.751Z,98642.06
2023-03-28T14:33:25.901Z,98645.97
2023-03-28T14:36:02.012Z,98645.28
2023-03-28T14:38:38.395Z,98657.63
2023-03-28T14:41:13.081Z,98660.03
2023-03-28T14:43:40.172Z,98674.59
2023-03-28T14:46:09.612Z,98699.47
2023-03-28T14:48:38.415Z,98708.84
2023-03-28T14:51:06.135Z,98690.66
2023-03-28T14:53:41.211Z,98675.94
2023-03-28T14:56:11.403Z,98669.72
2023-03-28T14:58:40.881Z,98671.47
2023-03-28T15:01:13.605Z,98641.09
2023-03-28T15:03:46.129Z,98670.63
2023-03-28T15:06:18.169Z,98667.75
2023-03-28T15:08:46.156Z,98666.00
2023-03-28T15:11:22.653Z,98676.06
2023-03-28T15:14:16.623Z,98668.34
2023-03-28T15:16:46.855Z,98668.53
2023-03-28T15:19:41.204Z,98686.13
2023-03-28T15:22:15.752Z,98695.44
2023-03-28T15:24:44.864Z,98693.50
2023-03-28T15:27:24.568Z,98697.25
2023-03-28T15:29:51.895Z,98706.19
2023-03-28T15:32:20.738Z,98707.41
2023-03-28T15:34:56.726Z,98707.53
2023-03-28T15:37:26.134Z,98702.72
2023-03-28T15:39:54.097Z,98702.69
2023-03-28T15:42:21.318Z,98698.69
2023-03-28T15:44:57.348Z,98698.06
2023-03-28T15:47:27.958Z,98708.94
2023-03-28T15:50:05.351Z,98690.22
2023-03-28T15:52:34.450Z,98709.34
2023-03-28T15:55:02.574Z,98664.13
2023-03-28T15:57:31.095Z,98714.66
2023-03-28T15:59:59.035Z,98716.34
2023-03-28T16:02:25.915Z,98715.03
2023-03-28T16:05:26.359Z,98721.38
2023-03-28T16:07:54.490Z,98730.03
2023-03-28T16:10:24.338Z,98734.53
2023-03-28T16:12:51.807Z,98732.09
2023-03-28T16:15:20.073Z,98730.13
2023-03-28T16:17:48.925Z,98746.06
2023-03-28T16:20:19.349Z,98747.22
2023-03-28T16:22:46.314Z,98735.19
2023-03-28T16:25:13.586Z,98746.75
2023-03-28T16:27:40.656Z,98760.53
2023-03-28T16:30:19.074Z,98780.63
2023-03-28T16:32:46.205Z,98774.84
2023-03-28T16:35:13.233Z,98752.06
2023-03-28T16:37:40.170Z,98777.72
2023-03-28T16:40:07.990Z,98774.84
2023-03-28T16:42:34.923Z,98776.25
2023-03-28T16:45:01.994Z,98778.81
2023-03-28T16:47:29.304Z,98772.53
2023-03-28T16:49:56.328Z,98782.56
2023-03-28T16:52:23.247Z,98796.03
2023-03-28T16:54:50.136Z,98802.69
2023-03-28T16:57:17.040Z,98816.03
2023-03-28T16:59:44.033Z,98818.97
2023-03-28T17:02:11.384Z,98825.94
2023-03-28T17:04:38.332Z,98833.19
2023-03-28T17:07:05.347Z,98820.19
2023-03-28T17:09:33.442Z,98841.63
2023-03-28T17:12:00.384Z,98837.88
2023-03-28T17:14:27.346Z,98839.59
2023-03-28T17:16:54.330Z,98843.28
2023-03-28T17:19:23.335Z,98844.63
2023-03-28T17:21:50.847Z,98857.03
2023-03-28T17:24:18.873Z,98855.13
2023-03-28T17:26:45.916Z,98860.06
2023-03-28T17:29:12.984Z,98867.06
2023-03-28T17:31:39.983Z,98861.75
2023-03-28T17:34:07.064Z,98872.13
2023-03-28T17:36:35.016Z,98875.50
2023-03-28T17:39:02.751Z,98837.78
2023-03-28T17:41:30.295Z,98870.78
2023-03-28T17:43:58.143Z,98890.94
2023-03-28T17:46:25.368Z,98886.59
2023-03-28T17:48:53.291Z,98896.25
2023-03-28T17:51:20.755Z,98907.81
2023-03-28T17:53:47.916Z,98899.03
2023-03-28T17:56:16.437Z,98924.22
2023-03-28T17:58:44.535Z,98918.69
2023-03-28T18:01:19.683Z,98909.53
2023-03-28T18:03:47.070Z,98933.75
2023-03-28T18:06:14.432Z,98926.28
2023-03-28T18:08:45.015Z,98930.47
2023-03-28T18:11:14.990Z,98940.13
2023-03-28T18:13:42.750Z,98946.28
2023-03-28T18:16:12.440Z,98935.56
2023-03-28T18:18:40.514Z,98945.69
2023-03-28T18:21:08.611Z,98954.09
2023-03-28T18:23:36.160Z,98959.41
2023-03-28T18:26:04.578Z,98927.94
2023-03-28T18:28:31.573Z,98947.59
2023-03-28T18:31:13.674Z,98953.38
2023-03-28T18:33:43.188Z,98947.34
2023-03-28T18:36:11.673Z,98956.75
2023-03-28T18:38:42.370Z,98962.19
2023-03-28T18:41:10.082Z,98960.50
2023-03-28T18:43:38.597Z,98967.50
2023-03-28T18:46:08.013Z,98971.94
2023-03-28T18:48:36.096Z,98985.44
2023-03-28T18:51:06.601Z,98978.56
2023-03-28T18:53:35.090Z,98978.81
2023-03-28T18:56:03.642Z,98982.31
2023-03-28T18:58:31.639Z,98981.22
2023-03-28T19:01:03.666Z,98973.56
2023-03-28T19:03:40.597Z,98985.91
2023-03-28T19:06:12.506Z,98992.31
2023-03-28T19:08:39.490Z,98979.88
2023-03-28T19:11:12.709Z,98993.72
2023-03-28T19:13:41.149Z,98989.53
2023-03-28T19:16:16.428Z,98989.63
2023-03-28T19:18:45.103Z,98992.91
2023-03-28T19:21:12.685Z,99000.72
2023-03-28T19:23:43.393Z,98997.72
2023-03-28T19:26:14.229Z,99004.22
2023-03-28T19:28:41.830Z,98997.38
2023-03-28T19:31:11.717Z,99005.00
2023-03-28T19:34:29.184Z,98999.94
2023-03-28T19:36:56.086Z,99002.69
2023-03-28T19:39:23.040Z,99003.78
2023-03-28T19:41:49.900Z,99007.13
2023-03-28T19:44:28.689Z,99008.38
2023-03-28T19:46:55.902Z,99000.63
2023-03-28T19:49:22.826Z,99007.19
2023-03-28T19:51:49.774Z,99006.28
2023-03-28T19:54:16.768Z,99005.44
2023-03-28T19:56:43.749Z,99011.09
2023-03-28T19:59:10.980Z,99001.59
2023-03-28T20:01:38.132Z,99012.19
2023-03-28T20:04:05.290Z,98995.78
2023-03-28T20:06:32.194Z,99002.19
2023-03-28T20:08:59.172Z,99005.78
2023-03-28T20:11:26.962Z,99004.22
2023-03-28T20:13:53.885Z,98997.97
2023-03-28T20:16:20.880Z,99007.72
2023-03-28T20:18:48.562Z,99003.28
2023-03-28T20:21:15.628Z,99012.28
2023-03-28T20:23:42.845Z,98994.94
2023-03-28T20:26:19.173Z,99005.19
2023-03-28T20:28:57.003Z,99000.13
2023-03-28T20:31:24.220Z,98991.41
2023-03-28T20:33:55.233Z,98988.41
2023-03-28T20:36:22.886Z,99000.22
2023-03-28T20:38:49.855Z,99006.63
2023-03-28T20:41:18.752Z,99015.53
2023-03-28T20:43:50.415Z,99010.22
2023-03-28T20:46:19.143Z,99011.66
2023-03-28T20:48:52.676Z,99012.38
2023-03-28T20:51:23.157Z,99019.63
2023-03-28T20:53:55.810Z,99020.16
2023-03-28T20:56:24.097Z,99024.50
2023-03-28T20:58:53.544Z,99028.97
2023-03-28T21:01:28.352Z,99020.00
2023-03-28T21:04:00.289Z,99027.25
2023-03-28T21:06:30.735Z,99036.75
2023-03-28T21:09:00.832Z,99042.19
2023-03-28T21:11:33.119Z,99033.13
2023-03-28T21:14:01.358Z,99046.03
2023-03-28T21:16:29.961Z,99007.13
2023-03-28T21:18:57.037Z,99049.44
2023-03-28T21:21:24.490Z,99046.91
2023-03-28T21:23:53.447Z,99038.56
2023-03-28T21:26:23.062Z,99045.06
2023-03-28T21:28:52.467Z,99047.06
2023-03-28T21:31:28.383Z,99041.03
2023-03-28T21:33:57.495Z,99046.44
2023-03-28T21:36:26.807Z,99041.28
2023-03-28T21:38:54.192Z,99047.00
2023-03-28T21:41:22.691Z,99053.25
2023-03-28T21:43:50.403Z,99045.63
2023-03-28T21:46:18.868Z,99041.28
2023-03-28T21:48:48.411Z,99040.25
2023-03-28T21:51:16.721Z,99042.38
2023-03-28T21:53:43.681Z,99049.13
2023-03-28T21:56:12.930Z,99040.44
2023-03-28T21:58:40.234Z,99043.22
2023-03-28T22:01:07.340Z,99046.63
2023-03-28T22:03:38.588Z,99034.22
2023-03-28T22:06:06.014Z,99047.38
2023-03-28T22:08:32.935Z,99037.50
2023-03-28T22:11:03.831Z,99038.44
2023-03-28T22:13:31.132Z,99046.63
2023-03-28T22:16:00.169Z,99045.69
2023-03-28T22:18:28.185Z,99007.78
2023-03-28T22:20:55.235Z,99043.44
2023-03-28T22:23:25.162Z,99041.03
2023-03-28T22:25:53.313Z,99053.84
2023-03-28T22:28:24.924Z,99049.50
2023-03-28T22:30:56.404Z,99049.16
2023-03-28T22:33:24.344Z,99053.63
2023-03-28T22:35:51.940Z,99026.97
2023-03-28T22:38:19.664Z,99061.25
2023-03-28T22:40:58.519Z,99059.13
2023-03-28T22:43:25.621Z,99067.59
2023-03-28T22:45:52.573Z,99059.88
2023-03-28T22:48:20.513Z,99059.13
2023-03-28T22:50:47.948Z,99062.97
2023-03-28T22:53:15.553Z,99069.09
2023-03-28T22:55:44.191Z,99054.72
2023-03-28T22:58:12.158Z,99044.69
2023-03-28T23:00:39.234Z,99069.56
2023-03-28T23:03:08.332Z,99074.31
2023-03-28T23:05:35.561Z,99079.72
2023-03-28T23:08:02.539Z,99080.63
2023-03-28T23:10:29.979Z,99092.66
2023-03-28T23:12:56.945Z,99087.69
2023-03-28T23:15:24.316Z,99083.88
2023-03-28T23:17:52.230Z,99088.97
2023-03-28T23:20:20.395Z,99097.53
2023-03-28T23:22:48.850Z,99088.44
2023-03-28T23:25:18.890Z,99091.09
2023-03-28T23:27:46.645Z,99085.78
2023-03-28T23:30:15.600Z,99083.78
2023-03-28T23:32:42.579Z,99084.53
2023-03-28T23:35:10.976Z,99076.59
2023-03-28T23:37:38.760Z,99077.34
2023-03-28T23:40:10.776Z,99080.28
2023-03-28T23:42:37.856Z,99072.66
2023-03-28T23:45:05.226Z,99082.38
2023-03-28T23:47:32.116Z,99085.53
2023-03-28T23:49:59.874Z,99075.03
2023-03-28T23:52:27.360Z,99075.16
2023-03-28T23:54:54.320Z,99074.50
2023-03-28T23:57:25.266Z,99083.41
2023-03-28T23:59:52.404Z,99078.13
